Time;durP1;ratioP1;P1;durP2;ratioP2;P2;SDS_P1;SDS_P2;PMS_P1;PMS_P2;Temp;Humidity;BMP_temperature;BMP_pressure;BME280_temperature;BME280_humidity;BME280_pressure;Samples;Min_cycle;Max_cycle;Signal;HPM_P1;HPM_P2
2023/07/18 00:01:20;;;;;;;;;;;;;;;-140.72;100.00;52593.78;5105342;28;20064;-71
2023/07/18 00:03:45;;;;;;;;;;;;;;;-140.72;100.00;52636.38;5096314;28;19920;-71
2023/07/18 00:06:11;;;;;;;;;;;;;;;-140.72;100.00;52614.06;5080844;28;20353;-71
2023/07/18 00:08:36;;;;;;;;;;;;;;;-140.72;100.00;52597.84;5094953;28;19921;-71
2023/07/18 00:11:01;;;;;;;;;;;;;;;-140.72;100.00;52626.25;5097676;28;20034;-71
2023/07/18 00:13:27;;;;;;;;;;;;;;;-140.72;100.00;52610.00;5085911;28;19924;-71
2023/07/18 00:15:52;;;;;;;;;;;;;;;-140.72;100.00;52616.09;5094660;28;19919;-72
2023/07/18 00:18:19;;;;;;;;;;;;;;;-140.72;100.00;52601.91;5096966;28;19932;-71
2023/07/18 00:20:44;;;;;;;;;;;;;;;-140.72;100.00;52624.22;5102489;28;19926;-72
2023/07/18 00:23:10;;;;;;;;;;;;;;;-140.72;100.00;52626.25;5094004;28;19991;-71
2023/07/18 00:25:36;;;;;;;;;;;;;;;-140.72;100.00;52628.28;5097648;28;20043;-71
2023/07/18 00:28:01;;;;;;;;;;;;;;;-140.72;100.00;52618.13;5091570;28;19972;-71
2023/07/18 00:30:26;;;;;;;;;;;;;;;-140.72;100.00;52605.94;5093881;28;19924;-72
2023/07/18 00:32:52;;;;;;;;;;;;;;;-140.72;100.00;52603.94;5095039;28;19928;-71
2023/07/18 00:35:17;;;;;;;;;;;;;;;-140.72;100.00;52620.16;5101958;28;20305;-71
2023/07/18 00:37:43;;;;;;;;;;;;;;;-140.72;100.00;52624.22;5080327;28;21554;-71
2023/07/18 00:40:12;;;;;;;;;;;;;;;-140.72;100.00;52638.41;5096325;28;19924;-71
2023/07/18 00:42:41;;;;;;;;;;;;;;;-140.72;100.00;52624.22;5096288;28;19927;-71
2023/07/18 00:45:07;;;;;;;;;;;;;;;-140.72;100.00;52636.38;5079751;28;20340;-71
2023/07/18 00:47:37;;;;;;;;;;;;;;;-140.72;100.00;52646.53;5098108;28;19928;-72
2023/07/18 00:50:04;;;;;;;;;;;;;;;-140.72;100.00;52644.50;5087147;28;19969;-72
2023/07/18 00:52:30;;;;;;;;;;;;;;;-140.72;100.00;52642.47;5075593;28;19920;-71
2023/07/18 00:54:55;;;;;;;;;;;;;;;-140.72;100.00;52646.53;5097942;28;19919;-72
2023/07/18 00:57:20;;;;;;;;;;;;;;;-140.72;100.00;52601.91;5096281;28;19982;-72
2023/07/18 00:59:45;;;;;;;;;;;;;;;-140.72;100.00;52662.78;5093814;28;19920;-72
2023/07/18 01:02:11;;;;;;;;;;;;;;;-140.72;100.00;52658.72;5076850;28;20265;-71
2023/07/18 01:04:36;;;;;;;;;;;;;;;-140.72;100.00;52650.59;5099159;28;19920;-71
2023/07/18 01:07:02;;;;;;;;;;;;;;;-140.72;100.00;52601.91;5096885;28;19919;-72
2023/07/18 01:09:27;;;;;;;;;;;;;;;-140.72;100.00;52634.38;5096288;28;20383;-72
2023/07/18 01:11:52;;;;;;;;;;;;;;;-140.72;100.00;52603.94;5094868;28;22094;-72
2023/07/18 01:14:18;;;;;;;;;;;;;;;-140.72;100.00;52642.47;5096321;28;20019;-73
2023/07/18 01:16:43;;;;;;;;;;;;;;;-140.72;100.00;52644.50;5100161;28;20001;-72
2023/07/18 01:19:08;;;;;;;;;;;;;;;-140.72;100.00;52587.69;5095045;28;19946;-72
2023/07/18 01:21:33;;;;;;;;;;;;;;;-140.72;100.00;52646.53;5093370;28;19928;-72
2023/07/18 01:23:58;;;;;;;;;;;;;;;-140.72;100.00;52656.69;5098688;28;19924;-72
2023/07/18 01:26:24;;;;;;;;;;;;;;;-140.72;100.00;52634.38;5095177;28;20441;-72
2023/07/18 01:28:49;;;;;;;;;;;;;;;-140.72;100.00;52614.06;5092066;28;20014;-72
2023/07/18 01:31:14;;;;;;;;;;;;;;;-140.72;100.00;52632.34;5096883;28;19924;-72
2023/07/18 01:33:41;;;;;;;;;;;;;;;-140.72;100.00;52650.59;5099060;28;20006;-72
2023/07/18 01:36:07;;;;;;;;;;;;;;;-140.72;100.00;52632.34;5093064;28;20316;-71
2023/07/18 01:38:32;;;;;;;;;;;;;;;-140.72;100.00;52607.97;5088600;28;20057;-72
2023/07/18 01:40:59;;;;;;;;;;;;;;;-140.72;100.00;52658.72;5097614;28;19928;-71
2023/07/18 01:43:24;;;;;;;;;;;;;;;-140.72;100.00;52642.47;5095408;28;20373;-71
2023/07/18 01:45:49;;;;;;;;;;;;;;;-140.72;100.00;52638.41;5105161;28;19919;-71
2023/07/18 01:48:15;;;;;;;;;;;;;;;-140.72;100.00;52648.56;5095001;28;19932;-71
2023/07/18 01:50:41;;;;;;;;;;;;;;;-140.72;100.00;52662.78;5099174;28;19924;-71
2023/07/18 01:53:06;;;;;;;;;;;;;;;-140.72;100.00;52648.56;5092878;28;19990;-72
2023/07/18 01:55:31;;;;;;;;;;;;;;;-140.72;100.00;52638.41;5094897;28;19935;-72
2023/07/18 01:57:56;;;;;;;;;;;;;;;-140.72;100.00;52650.59;5101622;28;19920;-71
2023/07/18 02:00:22;;;;;;;;;;;;;;;-140.72;100.00;52626.25;5098781;28;19959;-72
2023/07/18 02:02:48;;;;;;;;;;;;;;;-140.72;100.00;52630.31;5094173;28;19920;-72
2023/07/18 02:05:17;;;;;;;;;;;;;;;-140.72;100.00;52658.72;5096468;28;20080;-71
2023/07/18 02:07:43;;;;;;;;;;;;;;;-140.72;100.00;52624.22;5091731;28;19947;-71
2023/07/18 02:10:09;;;;;;;;;;;;;;;-140.72;100.00;52642.47;5096532;28;20401;-71
2023/07/18 02:12:34;;;;;;;;;;;;;;;-140.72;100.00;52646.53;5092850;28;20374;-71
2023/07/18 02:14:59;;;;;;;;;;;;;;;-140.72;100.00;52638.41;5095385;28;19920;-71
2023/07/18 02:17:24;;;;;;;;;;;;;;;-140.72;100.00;52628.28;5092885;28;19927;-71
2023/07/18 02:19:49;;;;;;;;;;;;;;;-140.72;100.00;52605.94;5094053;28;19928;-72
2023/07/18 02:22:17;;;;;;;;;;;;;;;-140.72;100.00;52658.72;5096303;28;19926;-71
2023/07/18 02:24:42;;;;;;;;;;;;;;;-140.72;100.00;52650.59;5089925;28;19962;-72
2023/07/18 02:27:07;;;;;;;;;;;;;;;-140.72;100.00;52620.16;5096751;28;20385;-73
2023/07/18 02:29:32;;;;;;;;;;;;;;;-140.72;100.00;52662.78;5094377;28;19920;-72
2023/07/18 02:31:58;;;;;;;;;;;;;;;-140.72;100.00;52658.72;5097287;28;19920;-72
2023/07/18 02:34:25;;;;;;;;;;;;;;;-140.72;100.00;52691.19;5085833;28;19935;-72
2023/07/18 02:36:57;;;;;;;;;;;;;;;-140.72;100.00;52616.09;5086473;28;19928;-72
2023/07/18 02:39:22;;;;;;;;;;;;;;;-140.72;100.00;52674.94;5089291;28;19960;-72
2023/07/18 02:41:48;;;;;;;;;;;;;;;-140.72;100.00;52632.34;5090396;28;20010;-72
2023/07/18 02:44:13;;;;;;;;;;;;;;;-140.72;100.00;52650.59;5087266;28;19920;-72
2023/07/18 02:46:38;;;;;;;;;;;;;;;-140.72;100.00;52676.97;5084137;28;20044;-72
2023/07/18 02:49:04;;;;;;;;;;;;;;;-140.72;100.00;52650.59;5088258;28;20008;-72
2023/07/18 02:51:30;;;;;;;;;;;;;;;-140.72;100.00;52703.34;5091680;28;20349;-72
2023/07/18 02:54:15;;;;;;;;;;;;;;;-140.72;100.00;52674.94;5089106;28;19920;-72
2023/07/18 02:56:40;;;;;;;;;;;;;;;-140.72;100.00;52644.50;5084271;28;19928;-72
2023/07/18 02:59:07;;;;;;;;;;;;;;;-140.72;100.00;52650.59;5087326;28;19920;-72
2023/07/18 03:01:34;;;;;;;;;;;;;;;-140.72;100.00;52662.78;5086883;28;19920;-72
2023/07/18 03:03:59;;;;;;;;;;;;;;;-140.72;100.00;52626.25;5097346;28;19990;-72
2023/07/18 03:06:24;;;;;;;;;;;;;;;-140.72;100.00;52654.66;5090486;28;20002;-72
2023/07/18 03:08:50;;;;;;;;;;;;;;;-140.72;100.00;52658.72;5072178;28;20273;-71
2023/07/18 03:11:16;;;;;;;;;;;;;;;-140.72;100.00;52654.66;5095830;28;19932;-72
2023/07/18 03:13:41;;;;;;;;;;;;;;;-140.72;100.00;52640.44;5088501;28;19920;-71
2023/07/18 03:16:07;;;;;;;;;;;;;;;-140.72;100.00;52672.91;5085714;28;19999;-71
2023/07/18 03:18:32;;;;;;;;;;;;;;;-140.72;100.00;52634.38;5094020;28;19920;-71
2023/07/18 03:20:57;;;;;;;;;;;;;;;-140.72;100.00;52654.66;5089317;28;19927;-72
2023/07/18 03:23:23;;;;;;;;;;;;;;;-140.72;100.00;52660.75;5066102;28;19920;-72
2023/07/18 03:25:48;;;;;;;;;;;;;;;-140.72;100.00;52691.19;5088708;28;20297;-71
2023/07/18 03:28:13;;;;;;;;;;;;;;;-140.72;100.00;52638.41;5085434;28;20015;-71
2023/07/18 03:30:40;;;;;;;;;;;;;;;-140.72;100.00;52695.25;5073654;28;19924;-72
2023/07/18 03:33:05;;;;;;;;;;;;;;;-140.72;100.00;52660.75;5098444;28;19921;-71
2023/07/18 03:35:31;;;;;;;;;;;;;;;-140.72;100.00;52662.78;5091963;28;19921;-71
2023/07/18 03:37:56;;;;;;;;;;;;;;;-140.72;100.00;52650.59;5088464;28;19927;-71
2023/07/18 03:40:21;;;;;;;;;;;;;;;-140.72;100.00;52646.53;5084345;28;20339;-72
2023/07/18 03:42:47;;;;;;;;;;;;;;;-140.72;100.00;52689.16;5093338;28;19979;-72
2023/07/18 03:45:13;;;;;;;;;;;;;;;-140.72;100.00;52654.66;5084979;28;19927;-72
2023/07/18 03:47:42;;;;;;;;;;;;;;;-140.72;100.00;52650.59;5064086;28;19925;-72
2023/07/18 03:50:11;;;;;;;;;;;;;;;-140.72;100.00;52638.41;5091260;28;20342;-72
2023/07/18 03:52:37;;;;;;;;;;;;;;;-140.72;100.00;52662.78;5084469;28;19976;-71
2023/07/18 03:55:03;;;;;;;;;;;;;;;-140.72;100.00;52662.78;5088623;28;20326;-71
2023/07/18 03:57:29;;;;;;;;;;;;;;;-140.72;100.00;52687.13;5084965;28;19932;-71
2023/07/18 03:59:55;;;;;;;;;;;;;;;-140.72;100.00;52691.19;5097888;28;19978;-70
2023/07/18 04:02:20;;;;;;;;;;;;;;;-140.72;100.00;52638.41;5089413;28;19998;-71
2023/07/18 04:04:57;;;;;;;;;;;;;;;-140.72;100.00;52664.81;5086057;28;20025;-71
2023/07/18 04:07:22;;;;;;;;;;;;;;;-140.72;100.00;52697.28;5075248;28;19999;-71
2023/07/18 04:09:47;;;;;;;;;;;;;;;-140.72;100.00;52660.75;5081270;28;19963;-71
2023/07/18 04:12:15;;;;;;;;;;;;;;;-140.72;100.00;52679.00;5091659;28;19920;-72
2023/07/18 04:14:43;;;;;;;;;;;;;;;-140.72;100.00;52693.22;5086236;28;19920;-72
2023/07/18 04:17:08;;;;;;;;;;;;;;;-140.72;100.00;52691.19;5072670;28;20401;-73
2023/07/18 04:19:34;;;;;;;;;;;;;;;-140.72;100.00;52679.00;5093307;28;19932;-74
2023/07/18 04:21:59;;;;;;;;;;;;;;;-140.72;100.00;52654.66;5096570;28;19920;-75
2023/07/18 04:24:24;;;;;;;;;;;;;;;-140.72;100.00;52685.09;5094684;28;19919;-74
2023/07/18 04:26:50;;;;;;;;;;;;;;;-140.72;100.00;52640.44;5078963;28;19920;-73
2023/07/18 04:29:15;;;;;;;;;;;;;;;-140.72;100.00;52658.72;5078559;28;19921;-73
2023/07/18 04:31:41;;;;;;;;;;;;;;;-140.72;100.00;52679.00;5077603;28;20006;-73
2023/07/18 04:34:06;;;;;;;;;;;;;;;-140.72;100.00;52697.28;5077972;28;19920;-75
2023/07/18 04:36:32;;;;;;;;;;;;;;;-140.72;100.00;52656.69;5077235;28;19924;-75
2023/07/18 04:38:58;;;;;;;;;;;;;;;-140.72;100.00;52622.19;5070992;28;19920;-75
2023/07/18 04:41:23;;;;;;;;;;;;;;;-140.72;100.00;52697.28;5077259;28;20369;-76
2023/07/18 04:43:48;;;;;;;;;;;;;;;-140.72;100.00;52622.19;5074283;28;19928;-76
2023/07/18 04:46:14;;;;;;;;;;;;;;;-140.72;100.00;52676.97;5070207;28;20233;-76
2023/07/18 04:48:40;;;;;;;;;;;;;;;-140.72;100.00;52658.72;5070186;28;19924;-75
2023/07/18 04:51:05;;;;;;;;;;;;;;;-140.72;100.00;52679.00;5071939;28;19946;-74
2023/07/18 04:53:32;;;;;;;;;;;;;;;-140.72;100.00;52670.88;5079328;28;19928;-74
2023/07/18 04:55:57;;;;;;;;;;;;;;;-140.72;100.00;52664.81;5073943;28;20011;-74
2023/07/18 04:58:24;;;;;;;;;;;;;;;-140.72;100.00;52681.03;5066629;28;20292;-74
2023/07/18 05:00:50;;;;;;;;;;;;;;;-140.72;100.00;52648.56;5064841;28;19927;-74
2023/07/18 05:03:15;;;;;;;;;;;;;;;-140.72;100.00;52666.84;5064446;28;19920;-76
2023/07/18 05:05:40;;;;;;;;;;;;;;;-140.72;100.00;52660.75;5066878;28;20019;-74
2023/07/18 05:08:05;;;;;;;;;;;;;;;-140.72;100.00;52642.47;5066442;28;19924;-74
2023/07/18 05:10:31;;;;;;;;;;;;;;;-140.72;100.00;52644.50;5063764;28;20319;-74
2023/07/18 05:12:56;;;;;;;;;;;;;;;-140.72;100.00;52666.84;5062432;28;19920;-74
2023/07/18 05:15:22;;;;;;;;;;;;;;;-140.72;100.00;52699.31;5066090;28;20004;-73
2023/07/18 05:17:47;;;;;;;;;;;;;;;-140.72;100.00;52634.38;5072509;28;19925;-73
2023/07/18 05:20:13;;;;;;;;;;;;;;;-140.72;100.00;52652.63;5071339;28;20461;-75
2023/07/18 05:22:39;;;;;;;;;;;;;;;-140.72;100.00;52632.34;5065770;28;20578;-72
2023/07/18 05:25:06;;;;;;;;;;;;;;;-140.72;100.00;52636.38;5073748;28;20378;-72
2023/07/18 05:27:31;;;;;;;;;;;;;;;-140.72;100.00;52660.75;5084257;28;20752;-72
2023/07/18 05:29:56;;;;;;;;;;;;;;;-140.72;100.00;52638.41;5081788;28;20011;-72
2023/07/18 05:32:22;;;;;;;;;;;;;;;-140.72;100.00;52628.28;5083893;28;19926;-72
2023/07/18 05:34:48;;;;;;;;;;;;;;;-140.72;100.00;52610.00;5079485;28;20014;-72
2023/07/18 05:37:13;;;;;;;;;;;;;;;-140.72;100.00;52658.72;5089036;28;19942;-72
2023/07/18 05:39:38;;;;;;;;;;;;;;;-140.72;100.00;52630.31;5087188;28;19929;-72
2023/07/18 05:42:04;;;;;;;;;;;;;;;-140.72;100.00;52634.38;5092460;28;19997;-71
2023/07/18 05:44:30;;;;;;;;;;;;;;;-140.72;100.00;52648.56;5101263;27;19975;-75
2023/07/18 05:46:55;;;;;;;;;;;;;;;-140.72;100.00;52640.44;5075591;28;19945;-76
2023/07/18 05:49:21;;;;;;;;;;;;;;;-140.72;100.00;52624.22;5094072;28;19920;-76
2023/07/18 05:51:46;;;;;;;;;;;;;;;-140.72;100.00;52630.31;5073213;28;20393;-73
2023/07/18 05:54:11;;;;;;;;;;;;;;;-140.72;100.00;52636.38;5084175;28;20215;-73
2023/07/18 05:56:37;;;;;;;;;;;;;;;-140.72;100.00;52640.44;5104281;28;19920;-74
2023/07/18 05:59:05;;;;;;;;;;;;;;;-140.72;100.00;52591.75;5088192;28;19939;-74
2023/07/18 06:01:30;;;;;;;;;;;;;;;-140.72;100.00;52563.34;5091142;28;19931;-74
2023/07/18 06:03:57;;;;;;;;;;;;;;;-140.72;100.00;52597.84;5091725;28;19923;-73
2023/07/18 06:06:23;;;;;;;;;;;;;;;-140.72;100.00;52589.72;5086291;28;20357;-74
2023/07/18 06:08:48;;;;;;;;;;;;;;;-140.72;100.00;52601.91;5075587;28;19956;-74
2023/07/18 06:11:13;;;;;;;;;;;;;;;-140.72;100.00;52622.19;5087234;28;19924;-72
2023/07/18 06:13:41;;;;;;;;;;;;;;;-140.72;100.00;52605.94;5089711;28;19924;-72
2023/07/18 06:16:06;;;;;;;;;;;;;;;-140.72;100.00;52577.53;5080122;28;19923;-72
2023/07/18 06:21:34;;;;;;;;;;;;;;;-140.72;100.00;52614.06;5093313;28;20016;-72
2023/07/18 06:23:59;;;;;;;;;;;;;;;-140.72;100.00;52573.50;5091001;28;19970;-72
2023/07/18 06:26:25;;;;;;;;;;;;;;;-140.72;100.00;52547.09;5093064;28;19920;-73
2023/07/18 06:28:51;;;;;;;;;;;;;;;-140.72;100.00;52557.25;5078452;28;19920;-72
2023/07/18 06:31:16;;;;;;;;;;;;;;;-140.72;100.00;52569.44;5100861;28;19931;-73
2023/07/18 06:33:41;;;;;;;;;;;;;;;-140.72;100.00;52549.13;5088414;28;19936;-73
2023/07/18 06:36:07;;;;;;;;;;;;;;;-140.72;100.00;52605.94;5067343;28;19920;-73
2023/07/18 06:38:32;;;;;;;;;;;;;;;-140.72;100.00;52595.81;5101785;28;19943;-72
2023/07/18 06:40:57;;;;;;;;;;;;;;;-140.72;100.00;52603.94;5094092;28;20385;-72
2023/07/18 06:43:24;;;;;;;;;;;;;;;-140.72;100.00;52581.59;5099605;28;19961;-72
2023/07/18 06:45:50;;;;;;;;;;;;;;;-140.72;100.00;52565.38;5086995;28;19920;-72
2023/07/18 06:48:15;;;;;;;;;;;;;;;-140.72;100.00;52591.75;5097277;28;20016;-72
2023/07/18 06:50:46;;;;;;;;;;;;;;;-140.72;100.00;52528.84;5087766;28;19942;-72
2023/07/18 06:53:13;;;;;;;;;;;;;;;-140.72;100.00;52591.75;5092761;28;19920;-72
2023/07/18 06:55:41;;;;;;;;;;;;;;;-140.72;100.00;52589.72;5086864;28;19965;-72
2023/07/18 06:58:08;;;;;;;;;;;;;;;-140.72;100.00;52551.16;5092893;28;20262;-72
2023/07/18 07:00:33;;;;;;;;;;;;;;;-140.72;100.00;52565.38;5101542;27;19999;-72
2023/07/18 07:02:58;;;;;;;;;;;;;;;-140.72;100.00;52565.38;5095418;28;19959;-72
2023/07/18 07:05:24;;;;;;;;;;;;;;;-140.72;100.00;52545.06;5096393;28;19928;-72
2023/07/18 07:07:49;;;;;;;;;;;;;;;-140.72;100.00;52561.31;5096914;28;20046;-72
2023/07/18 07:10:14;;;;;;;;;;;;;;;-140.72;100.00;52575.50;5094794;28;19916;-72
2023/07/18 07:12:40;;;;;;;;;;;;;;;-140.72;100.00;52536.97;5096190;28;19920;-72
2023/07/18 07:15:06;;;;;;;;;;;;;;;-140.72;100.00;52524.78;5088991;28;19920;-73
2023/07/18 07:17:31;;;;;;;;;;;;;;;-140.72;100.00;52561.31;5081470;28;19917;-72
2023/07/18 07:19:57;;;;;;;;;;;;;;;-140.72;100.00;52549.13;5086931;28;19959;-73
2023/07/18 07:22:22;;;;;;;;;;;;;;;-140.72;100.00;52567.41;5086382;28;19924;-72
2023/07/18 07:24:47;;;;;;;;;;;;;;;-140.72;100.00;52520.72;5087138;28;20014;-72
2023/07/18 07:27:13;;;;;;;;;;;;;;;-140.72;100.00;52545.06;5092372;27;19920;-73
2023/07/18 07:29:42;;;;;;;;;;;;;;;-140.72;100.00;52528.84;5091391;28;20437;-74
2023/07/18 07:32:07;;;;;;;;;;;;;;;-140.72;100.00;52508.56;5089249;28;20366;-72
2023/07/18 07:34:32;;;;;;;;;;;;;;;-140.72;100.00;52559.28;5087183;28;19930;-72
2023/07/18 07:36:58;;;;;;;;;;;;;;;-140.72;100.00;52541.03;5082012;28;19974;-72
2023/07/18 07:39:23;;;;;;;;;;;;;;;-140.72;94.39;52530.88;5067644;28;20444;-72
2023/07/18 07:41:48;;;;;;;;;;;;;;;-140.72;96.34;52492.31;5082179;28;19930;-72
2023/07/18 07:44:13;;;;;;;;;;;;;;;-140.72;81.93;52543.03;5090152;28;20435;-71
2023/07/18 07:46:39;;;;;;;;;;;;;;;-140.72;81.24;52545.06;5077358;28;20511;-71
2023/07/18 07:49:04;;;;;;;;;;;;;;;-140.72;69.23;52502.47;5075891;28;19927;-71
2023/07/18 07:51:29;;;;;;;;;;;;;;;-140.72;71.34;52545.06;5094471;28;20381;-72
2023/07/18 07:53:54;;;;;;;;;;;;;;;-140.72;64.65;52508.56;5082963;28;19920;-71
2023/07/18 07:56:20;;;;;;;;;;;;;;;-140.72;61.33;52484.19;5085027;28;19929;-72
2023/07/18 07:58:45;;;;;;;;;;;;;;;-140.72;54.16;52508.56;5087172;28;19935;-71
2023/07/18 08:01:10;;;;;;;;;;;;;;;-140.72;44.61;52500.44;5073787;28;19973;-71
2023/07/18 08:03:36;;;;;;;;;;;;;;;-140.72;39.18;52514.63;5092271;28;19923;-71
2023/07/18 08:06:01;;;;;;;;;;;;;;;-140.72;25.01;52486.22;5085078;28;20306;-72
2023/07/18 08:08:27;;;;;;;;;;;;;;;-140.72;22.97;52488.25;5089794;28;20006;-72
2023/07/18 08:10:52;;;;;;;;;;;;;;;-140.72;19.06;52455.78;5092797;28;20018;-72
2023/07/18 08:13:18;;;;;;;;;;;;;;;-140.72;10.19;52447.69;5092562;28;19916;-72
2023/07/18 08:15:43;;;;;;;;;;;;;;;-140.72;4.42;52449.72;5082474;28;19955;-72
2023/07/18 08:18:08;;;;;;;;;;;;;;;-140.72;0.00;52461.88;5081586;28;20492;-72
2023/07/18 08:20:33;;;;;;;;;;;;;;;-140.72;0.00;52465.94;5084039;28;19967;-72
2023/07/18 08:22:59;;;;;;;;;;;;;;;-140.72;0.00;52423.31;5092733;28;20057;-72
2023/07/18 08:25:24;;;;;;;;;;;;;;;-140.72;0.00;52425.34;5092452;28;20014;-72
2023/07/18 08:27:49;;;;;;;;;;;;;;;-140.72;0.00;52423.31;5067454;28;19927;-72
2023/07/18 08:30:14;;;;;;;;;;;;;;;-140.72;0.00;52463.91;5083800;28;19920;-72
2023/07/18 08:32:40;;;;;;;;;;;;;;;-140.72;0.00;52403.03;5084860;28;19931;-72
2023/07/18 08:35:06;;;;;;;;;;;;;;;-140.72;0.00;52421.28;5088720;28;19920;-72
2023/07/18 08:37:31;;;;;;;;;;;;;;;-140.72;0.00;52431.44;5077085;28;20058;-72
2023/07/18 08:39:58;;;;;;;;;;;;;;;-140.72;0.00;52415.22;5092315;28;20292;-72
2023/07/18 08:42:26;;;;;;;;;;;;;;;-140.72;0.00;52415.22;5075552;28;19916;-72
2023/07/18 08:44:53;;;;;;;;;;;;;;;-140.72;0.00;52403.03;5063422;28;19935;-71
2023/07/18 08:47:20;;;;;;;;;;;;;;;-140.72;0.00;52394.91;5076219;28;20096;-72
2023/07/18 08:49:45;;;;;;;;;;;;;;;-140.72;0.00;52386.81;5092395;28;20246;-72
2023/07/18 08:52:11;;;;;;;;;;;;;;;-140.72;0.00;52384.78;5065376;28;19916;-72
2023/07/18 08:54:37;;;;;;;;;;;;;;;-140.72;0.00;52364.47;5089988;28;20400;-72
2023/07/18 08:57:02;;;;;;;;;;;;;;;-140.72;0.00;52390.84;5081846;28;19932;-72
2023/07/18 08:59:28;;;;;;;;;;;;;;;-140.72;0.00;52374.63;5077033;28;19924;-72
2023/07/18 09:01:53;;;;;;;;;;;;;;;-140.72;0.00;52350.28;5063223;28;19928;-72
2023/07/18 09:04:18;;;;;;;;;;;;;;;-140.72;0.00;52352.31;5078049;28;20077;-72
2023/07/18 09:06:55;;;;;;;;;;;;;;;-140.72;0.00;52332.03;5086892;28;20382;-72
2023/07/18 09:09:23;;;;;;;;;;;;;;;-140.72;0.00;52394.91;5089344;28;20323;-71
2023/07/18 09:11:55;;;;;;;;;;;;;;;-140.72;0.00;52407.09;5082890;28;19920;-72
2023/07/18 09:14:27;;;;;;;;;;;;;;;-140.72;0.00;52380.72;5090831;28;19916;-71
2023/07/18 09:16:54;;;;;;;;;;;;;;;-140.72;0.00;52390.84;5061729;28;19974;-71
2023/07/18 09:19:19;;;;;;;;;;;;;;;-140.72;0.00;52382.75;5083158;28;20239;-72
2023/07/18 09:21:44;;;;;;;;;;;;;;;-140.72;0.00;52372.59;5072328;28;19969;-72
2023/07/18 09:24:10;;;;;;;;;;;;;;;-140.72;0.00;52366.50;5083121;28;20285;-72
2023/07/18 09:26:35;;;;;;;;;;;;;;;-140.72;0.00;52313.75;5092022;28;19955;-72
2023/07/18 09:29:08;;;;;;;;;;;;;;;-140.72;0.00;52289.41;5089195;28;20648;-71
2023/07/18 09:31:33;;;;;;;;;;;;;;;-140.72;0.00;52293.47;5090131;28;19960;-71
2023/07/18 09:33:59;;;;;;;;;;;;;;;-140.72;0.00;52305.63;5091854;28;19970;-71
2023/07/18 09:36:24;;;;;;;;;;;;;;;-140.72;0.00;52293.47;5092468;28;19924;-71
2023/07/18 09:38:50;;;;;;;;;;;;;;;-140.72;0.00;52311.72;5072407;28;20021;-71
2023/07/18 09:41:16;;;;;;;;;;;;;;;-140.72;0.00;52261.00;5067181;28;20020;-73
2023/07/18 09:43:46;;;;;;;;;;;;;;;-140.72;0.00;52261.00;5097890;28;20324;-72
2023/07/18 09:46:15;;;;;;;;;;;;;;;-140.72;0.00;52214.34;5086554;28;19920;-71
2023/07/18 09:48:41;;;;;;;;;;;;;;;-140.72;0.00;52204.19;5087534;28;19928;-71
2023/07/18 09:51:24;;;;;;;;;;;;;;;-140.72;0.00;52204.19;5086920;28;19931;-71
2023/07/18 09:53:51;;;;;;;;;;;;;;;-140.72;0.00;52244.78;5084064;28;19923;-72
2023/07/18 09:56:16;;;;;;;;;;;;;;;-140.72;0.00;52202.16;5088637;28;19917;-71
2023/07/18 09:58:43;;;;;;;;;;;;;;;-140.72;0.00;52189.97;5077470;28;19940;-71
2023/07/18 10:01:11;;;;;;;;;;;;;;;-140.72;0.00;52155.50;5081444;28;20007;-71
2023/07/18 10:03:37;;;;;;;;;;;;;;;-140.72;0.00;52157.53;5085324;28;20286;-72
2023/07/18 10:06:05;;;;;;;;;;;;;;;-140.72;0.00;52118.97;5088333;28;20029;-72
2023/07/18 10:08:30;;;;;;;;;;;;;;;-140.72;0.00;52070.28;5067700;28;20377;-72
2023/07/18 10:11:11;;;;;;;;;;;;;;;-140.72;0.00;52094.63;5067025;28;19928;-72
2023/07/18 10:13:55;;;;;;;;;;;;;;;-140.72;0.00;52070.28;5086818;28;19924;-72
2023/07/18 10:16:20;;;;;;;;;;;;;;;-140.72;0.00;52049.97;5081520;28;19920;-72
2023/07/18 10:18:49;;;;;;;;;;;;;;;-140.72;0.00;52049.97;5083079;28;20326;-72
2023/07/18 10:21:27;;;;;;;;;;;;;;;-140.72;0.00;51987.09;5091658;28;20277;-72
2023/07/18 10:23:53;;;;;;;;;;;;;;;-140.72;0.00;52060.13;5089448;28;19927;-72
2023/07/18 10:26:28;;;;;;;;;;;;;;;-140.72;0.00;52015.50;5077433;28;19920;-72
2023/07/18 10:28:58;;;;;;;;;;;;;;;-140.72;0.00;52005.34;5091456;28;19920;-72
2023/07/18 10:31:28;;;;;;;;;;;;;;;-140.72;0.00;52015.50;5091972;28;19916;-73
2023/07/18 10:34:13;;;;;;;;;;;;;;;-140.72;0.00;52025.63;5083724;28;19916;-72
2023/07/18 10:36:39;;;;;;;;;;;;;;;-140.72;0.00;52072.31;5064997;28;19959;-71
2023/07/18 10:39:14;;;;;;;;;;;;;;;-140.72;0.00;52133.16;5070813;28;19938;-72
2023/07/18 10:41:43;;;;;;;;;;;;;;;-140.72;0.00;52202.16;5090630;28;19940;-72
2023/07/18 10:44:15;;;;;;;;;;;;;;;-140.72;0.00;52086.50;5087460;28;19940;-71
2023/07/18 10:46:41;;;;;;;;;;;;;;;-140.72;0.00;51976.94;5092806;28;19934;-72
2023/07/18 10:49:07;;;;;;;;;;;;;;;-140.72;0.00;52086.50;5085035;28;19930;-71
2023/07/18 10:51:33;;;;;;;;;;;;;;;-140.72;0.00;52139.25;5079204;28;19974;-72
2023/07/18 10:53:59;;;;;;;;;;;;;;;-140.72;0.00;52236.66;5070788;28;20337;-71
2023/07/18 10:56:24;;;;;;;;;;;;;;;-140.72;0.00;52311.72;5083359;28;20294;-73
2023/07/18 10:58:51;;;;;;;;;;;;;;;-140.72;0.00;52289.41;5087592;28;20030;-73
2023/07/18 11:01:17;;;;;;;;;;;;;;;-140.72;0.00;52291.44;5072836;28;19916;-74
2023/07/18 11:03:45;;;;;;;;;;;;;;;-140.72;0.00;52261.00;5090806;28;19928;-74
2023/07/18 11:06:10;;;;;;;;;;;;;;;-140.72;0.00;52192.00;5087828;28;19917;-74
2023/07/18 11:08:37;;;;;;;;;;;;;;;-140.72;0.00;52189.97;5078937;28;19950;-73
2023/07/18 11:11:18;;;;;;;;;;;;;;;-140.72;0.00;52098.69;5083860;28;19941;-73
2023/07/18 11:13:43;;;;;;;;;;;;;;;-140.72;0.00;52041.88;5099623;28;20358;-73
2023/07/18 11:16:10;;;;;;;;;;;;;;;-140.72;0.00;52098.69;5090842;28;19921;-74
2023/07/18 11:18:36;;;;;;;;;;;;;;;-140.72;0.00;51972.88;5087163;28;19920;-72
2023/07/18 11:21:05;;;;;;;;;;;;;;;-140.72;0.00;51895.78;5093672;28;19965;-72
2023/07/18 11:23:31;;;;;;;;;;;;;;;-140.72;0.00;51897.81;5093641;28;20043;-72
2023/07/18 11:25:56;;;;;;;;;;;;;;;-140.72;0.00;52033.75;5094232;28;19920;-72
2023/07/18 11:28:27;;;;;;;;;;;;;;;-140.72;0.00;51978.97;5094458;28;19920;-72
2023/07/18 11:30:52;;;;;;;;;;;;;;;-140.72;0.00;51993.19;5081981;28;20351;-72
2023/07/18 11:33:19;;;;;;;;;;;;;;;-140.72;0.00;51893.75;5090324;28;19938;-71
2023/07/18 11:35:45;;;;;;;;;;;;;;;-140.72;0.00;51914.03;5083030;28;19916;-72
2023/07/18 11:38:11;;;;;;;;;;;;;;;-140.72;0.00;51889.69;5087326;28;19922;-72
2023/07/18 11:40:37;;;;;;;;;;;;;;;-140.72;0.00;51879.56;5094231;28;20014;-72
2023/07/18 11:43:02;;;;;;;;;;;;;;;-140.72;0.00;51853.19;5087976;28;19916;-72
2023/07/18 11:45:28;;;;;;;;;;;;;;;-140.72;0.00;51832.91;5088896;28;19931;-72
2023/07/18 11:47:57;;;;;;;;;;;;;;;-140.72;0.00;51838.97;5094525;28;19924;-72
2023/07/18 11:50:26;;;;;;;;;;;;;;;-140.72;0.00;51970.84;5093865;28;19927;-73
2023/07/18 11:52:52;;;;;;;;;;;;;;;-140.72;0.00;52131.16;5093519;28;20006;-73
2023/07/18 11:55:18;;;;;;;;;;;;;;;-140.72;0.00;52112.88;5081523;28;20003;-72
2023/07/18 11:57:43;;;;;;;;;;;;;;;-140.72;0.00;51991.16;5083718;28;19963;-73
2023/07/18 12:00:10;;;;;;;;;;;;;;;-140.72;0.00;51966.81;5076642;28;19943;-73
2023/07/18 12:02:36;;;;;;;;;;;;;;;-140.72;0.00;52027.66;5065091;28;19927;-73
2023/07/18 12:05:01;;;;;;;;;;;;;;;-140.72;0.00;52123.03;5080526;28;20378;-73
2023/07/18 12:07:26;;;;;;;;;;;;;;;-140.72;0.00;52011.44;5078417;28;19927;-73
2023/07/18 12:09:52;;;;;;;;;;;;;;;-140.72;0.00;52066.22;5074731;28;19943;-74
2023/07/18 12:12:19;;;;;;;;;;;;;;;-140.72;0.00;51968.81;5095063;28;19916;-73
2023/07/18 12:14:44;;;;;;;;;;;;;;;-140.72;0.00;51920.13;5079925;28;20354;-73
2023/07/18 12:17:10;;;;;;;;;;;;;;;-140.72;0.00;51857.25;5092876;28;19923;-73
2023/07/18 12:19:35;;;;;;;;;;;;;;;-140.72;0.00;51948.53;5086454;28;19920;-73
2023/07/18 12:22:00;;;;;;;;;;;;;;;-140.72;0.00;51991.16;5106187;28;19970;-73